createdAt,value
2023-07-24T00:02:19.503Z,99595.00
2023-07-24T00:04:49.491Z,99592.28
2023-07-24T00:07:17.493Z,99580.16
2023-07-24T00:09:45.483Z,99571.56
2023-07-24T00:12:13.747Z,99570.94
2023-07-24T00:14:41.738Z,99568.22
2023-07-24T00:17:09.811Z,99565.94
2023-07-24T00:19:38.191Z,99567.63
2023-07-24T00:22:07.771Z,99562.84
2023-07-24T00:24:35.861Z,99574.09
2023-07-24T00:27:04.473Z,99571.44
2023-07-24T00:29:32.546Z,99569.34
2023-07-24T00:32:00.544Z,99574.00
2023-07-24T00:34:30.208Z,99570.41
2023-07-24T00:36:58.320Z,99568.25
2023-07-24T00:39:29.460Z,99579.38
2023-07-24T00:41:58.723Z,99571.69
2023-07-24T00:44:26.749Z,99562.69
2023-07-24T00:46:56.689Z,99559.75
2023-07-24T00:49:25.904Z,99556.63
2023-07-24T00:51:54.915Z,99547.66
2023-07-24T00:54:24.313Z,99543.22
2023-07-24T00:56:54.085Z,99543.87
2023-07-24T00:59:23.503Z,99543.87
2023-07-24T01:01:51.964Z,99546.59
2023-07-24T01:04:20.889Z,99551.37
2023-07-24T01:06:48.937Z,99541.56
2023-07-24T01:09:17.255Z,99552.25
2023-07-24T01:11:49.004Z,99545.16
2023-07-24T01:14:24.652Z,99546.84
2023-07-24T01:16:58.084Z,99548.94
2023-07-24T01:19:37.629Z,99542.25
2023-07-24T01:22:16.510Z,99541.41
2023-07-24T01:25:03.209Z,99541.84
2023-07-24T01:27:32.892Z,99541.03
2023-07-24T01:30:01.000Z,99536.03
2023-07-24T01:32:29.287Z,99531.47
2023-07-24T01:34:57.665Z,99528.50
2023-07-24T01:37:27.348Z,99531.00
2023-07-24T01:39:57.713Z,99528.34
2023-07-24T01:42:27.636Z,99527.91
2023-07-24T01:44:57.573Z,99526.88
2023-07-24T01:47:26.013Z,99529.59
2023-07-24T01:49:54.022Z,99530.03
2023-07-24T01:52:22.233Z,99524.38
2023-07-24T01:54:51.195Z,99523.16
2023-07-24T01:57:19.274Z,99515.44
2023-07-24T01:59:47.306Z,99514.63
2023-07-24T02:02:16.992Z,99520.25
2023-07-24T02:04:45.456Z,99522.31
2023-07-24T02:07:13.475Z,99515.00
2023-07-24T02:09:41.486Z,99515.22
2023-07-24T02:12:09.919Z,99506.03
2023-07-24T02:14:38.031Z,99507.50
2023-07-24T02:17:06.462Z,99511.06
2023-07-24T02:19:35.914Z,99506.47
2023-07-24T02:22:04.230Z,99505.63
2023-07-24T02:24:36.866Z,99508.13
2023-07-24T02:27:06.532Z,99511.06
2023-07-24T02:29:35.493Z,99503.53
2023-07-24T02:32:03.680Z,99497.50
2023-07-24T02:34:31.764Z,99494.34
2023-07-24T02:37:01.383Z,99488.69
2023-07-24T02:39:29.507Z,99485.97
2023-07-24T02:41:57.524Z,99492.88
2023-07-24T02:44:25.914Z,99487.44
2023-07-24T02:46:53.900Z,99482.66
2023-07-24T02:49:21.880Z,99483.66
2023-07-24T02:51:52.555Z,99480.75
2023-07-24T02:54:21.897Z,99482.66
2023-07-24T02:56:50.191Z,99482.00
2023-07-24T02:59:18.309Z,99484.09
2023-07-24T03:01:46.339Z,99486.81
2023-07-24T03:04:14.742Z,99494.34
2023-07-24T03:06:42.811Z,99491.00
2023-07-24T03:09:10.823Z,99491.41
2023-07-24T03:11:41.859Z,99486.41
2023-07-24T03:14:10.311Z,99490.19
2023-07-24T03:16:38.574Z,99492.06
2023-07-24T03:19:06.565Z,99492.91
2023-07-24T03:21:34.666Z,99499.16
2023-07-24T03:24:03.008Z,99504.78
2023-07-24T03:26:31.227Z,99497.91
2023-07-24T03:29:02.268Z,99494.38
2023-07-24T03:31:30.585Z,99496.44
2023-07-24T03:33:58.598Z,99496.88
2023-07-24T03:36:26.681Z,99493.53
2023-07-24T03:38:55.397Z,99485.78
2023-07-24T03:41:23.517Z,99496.00
2023-07-24T03:43:51.493Z,99496.00
2023-07-24T03:46:21.148Z,99486.81
2023-07-24T03:48:50.927Z,99489.53
2023-07-24T03:51:19.168Z,99489.53
2023-07-24T03:53:47.246Z,99485.97
2023-07-24T03:56:15.401Z,99486.81
2023-07-24T03:58:43.697Z,99485.97
2023-07-24T04:01:11.818Z,99490.19
2023-07-24T04:03:41.578Z,99488.09
2023-07-24T04:06:10.871Z,99487.50
2023-07-24T04:08:38.923Z,99485.97
2023-07-24T04:11:07.239Z,99484.31
2023-07-24T04:13:35.268Z,99494.12
2023-07-24T04:16:03.517Z,99482.03
2023-07-24T04:18:31.782Z,99485.78
2023-07-24T04:21:01.112Z,99489.94
2023-07-24T04:23:29.137Z,99483.25
2023-07-24T04:25:57.484Z,99482.69
2023-07-24T04:28:25.492Z,99475.56
2023-07-24T04:30:53.604Z,99478.88
2023-07-24T04:33:21.918Z,99474.72
2023-07-24T04:35:50.521Z,99477.44
2023-07-24T04:38:19.879Z,99474.28
2023-07-24T04:40:48.168Z,99473.03
2023-07-24T04:43:16.248Z,99465.06
2023-07-24T04:45:44.318Z,99459.84
2023-07-24T04:48:12.695Z,99451.69
2023-07-24T04:50:40.739Z,99444.53
2023-07-24T04:53:08.872Z,99448.50
2023-07-24T04:55:38.632Z,99447.84
2023-07-24T04:58:06.640Z,99444.50
2023-07-24T05:00:34.732Z,99443.41
2023-07-24T05:03:03.054Z,99423.34
2023-07-24T05:05:32.670Z,99422.28
2023-07-24T05:08:00.788Z,99424.63
2023-07-24T05:10:29.046Z,99426.91
2023-07-24T05:12:58.488Z,99423.59
2023-07-24T05:15:26.517Z,99437.16
2023-07-24T05:17:54.826Z,99440.25
2023-07-24T05:20:23.110Z,99434.66
2023-07-24T05:22:51.152Z,99431.50
2023-07-24T05:25:19.631Z,99422.28
2023-07-24T05:27:47.666Z,99421.84
2023-07-24T05:30:17.279Z,99431.84
2023-07-24T05:32:44.616Z,99421.34
2023-07-24T05:35:12.827Z,99426.34
2023-07-24T05:37:40.865Z,99420.03
2023-07-24T05:40:10.350Z,99422.50
2023-07-24T05:42:42.667Z,99432.09
2023-07-24T05:45:12.095Z,99433.75
2023-07-24T05:47:41.560Z,99424.50
2023-07-24T05:50:10.302Z,99430.31
2023-07-24T05:52:38.675Z,99429.81
2023-07-24T05:55:07.363Z,99429.31
2023-07-24T05:57:35.462Z,99426.75
2023-07-24T06:00:04.453Z,99421.22
2023-07-24T06:02:40.802Z,99422.41
2023-07-24T06:05:09.870Z,99417.28
2023-07-24T06:07:37.988Z,99410.84
2023-07-24T06:10:06.608Z,99411.75
2023-07-24T06:12:34.861Z,99413.41
2023-07-24T06:15:02.971Z,99407.66
2023-07-24T06:17:31.042Z,99407.84
2023-07-24T06:20:00.995Z,99406.87
2023-07-24T06:22:29.027Z,99400.88
2023-07-24T06:24:57.105Z,99409.06
2023-07-24T06:27:25.434Z,99401.94
2023-07-24T06:29:55.964Z,99392.25
2023-07-24T06:32:30.487Z,99398.41
2023-07-24T06:34:59.846Z,99402.47
2023-07-24T06:37:27.872Z,99395.72
2023-07-24T06:39:56.082Z,99388.03
2023-07-24T06:42:24.121Z,99385.06
2023-07-24T06:45:10.984Z,99386.13
2023-07-24T06:47:57.715Z,99387.16
2023-07-24T06:50:45.911Z,99380.06
2023-07-24T06:53:15.254Z,99381.22
2023-07-24T06:55:43.713Z,99373.50
2023-07-24T06:58:11.845Z,99371.09
2023-07-24T07:00:40.210Z,99382.75
2023-07-24T07:03:08.355Z,99379.91
2023-07-24T07:05:36.455Z,99387.62
2023-07-24T07:08:06.263Z,99389.88
2023-07-24T07:10:34.344Z,99382.16
2023-07-24T07:13:02.403Z,99372.97
2023-07-24T07:15:30.860Z,99381.81
2023-07-24T07:17:58.982Z,99384.50
2023-07-24T07:20:27.030Z,99386.03
2023-07-24T07:22:55.255Z,99380.94
2023-07-24T07:25:24.712Z,99384.50
2023-07-24T07:27:52.737Z,99383.22
2023-07-24T07:30:21.014Z,99381.56
2023-07-24T07:32:50.202Z,99380.62
2023-07-24T07:35:18.307Z,99384.16
2023-07-24T07:37:46.686Z,99363.84
2023-07-24T07:40:14.833Z,99373.25
2023-07-24T07:42:46.106Z,99367.59
2023-07-24T07:45:14.548Z,99368.44
2023-07-24T07:47:42.782Z,99375.31
2023-07-24T07:50:11.350Z,99373.53
2023-07-24T07:52:39.740Z,99363.25
2023-07-24T07:55:08.412Z,99373.25
2023-07-24T07:57:37.106Z,99365.84
2023-07-24T08:00:08.057Z,99357.09
2023-07-24T08:02:36.323Z,99353.84
2023-07-24T08:05:12.858Z,99360.87
2023-07-24T08:07:44.362Z,99353.47
2023-07-24T08:10:16.047Z,99341.97
2023-07-24T08:12:45.088Z,99335.03
2023-07-24T08:15:14.752Z,99333.66
2023-07-24T08:17:42.781Z,99336.84
2023-07-24T08:20:11.552Z,99314.50
2023-07-24T08:22:39.906Z,99319.00
2023-07-24T08:25:09.117Z,99311.62
2023-07-24T08:27:49.964Z,99316.59
2023-07-24T08:30:24.681Z,99304.81
2023-07-24T08:32:52.772Z,99307.41
2023-07-24T08:35:20.863Z,99302.19
2023-07-24T08:37:49.197Z,99304.91
2023-07-24T08:40:18.151Z,99304.28
2023-07-24T08:42:46.504Z,99305.50
2023-07-24T08:45:15.519Z,99297.28
2023-07-24T08:47:46.594Z,99297.34
2023-07-24T08:50:16.597Z,99293.50
2023-07-24T08:52:46.099Z,99290.19
2023-07-24T08:55:14.879Z,99292.66
2023-07-24T08:57:42.962Z,99300.72
2023-07-24T09:00:11.960Z,99301.00
2023-07-24T09:02:40.342Z,99291.97
2023-07-24T09:05:10.754Z,99297.75
2023-07-24T09:07:39.852Z,99291.97
2023-07-24T09:10:11.829Z,99281.25
2023-07-24T09:12:42.365Z,99280.91
2023-07-24T09:15:13.138Z,99263.25
2023-07-24T09:17:50.012Z,99260.44
2023-07-24T09:20:32.131Z,99248.28
2023-07-24T09:25:32.388Z,99260.72
2023-07-24T09:28:00.424Z,99264.22
2023-07-24T09:30:29.057Z,99268.31
2023-07-24T09:32:57.611Z,99254.37
2023-07-24T09:35:29.273Z,99255.66
2023-07-24T09:38:05.429Z,99242.88
2023-07-24T09:40:41.638Z,99259.28
2023-07-24T09:43:37.234Z,99257.72
2023-07-24T09:46:08.030Z,99252.78
2023-07-24T09:51:13.600Z,99232.22
2023-07-24T09:53:48.025Z,99240.59
2023-07-24T09:56:17.303Z,99247.94
2023-07-24T09:58:46.920Z,99237.38
2023-07-24T10:01:15.136Z,99243.78
2023-07-24T10:03:52.709Z,99239.59
2023-07-24T10:06:23.244Z,99232.06
2023-07-24T10:08:52.351Z,99229.66
2023-07-24T10:11:21.429Z,99227.03
2023-07-24T10:13:50.076Z,99219.72
2023-07-24T10:16:18.752Z,99216.94
2023-07-24T10:18:48.305Z,99209.78
2023-07-24T10:21:16.565Z,99211.38
2023-07-24T10:23:48.514Z,99205.09
2023-07-24T10:26:17.092Z,99202.16
2023-07-24T10:28:49.824Z,99194.59
2023-07-24T10:31:22.885Z,99193.06
2023-07-24T10:33:52.241Z,99187.94
2023-07-24T10:36:23.335Z,99185.34
2023-07-24T10:38:56.799Z,99181.50
2023-07-24T10:41:35.992Z,99176.06
2023-07-24T10:44:04.778Z,99175.09
2023-07-24T10:46:38.590Z,99173.66
2023-07-24T10:49:07.224Z,99172.91
2023-07-24T10:51:38.283Z,99172.03
2023-07-24T10:54:08.236Z,99164.44
2023-07-24T10:56:38.894Z,99165.38
2023-07-24T10:59:07.468Z,99163.28
2023-07-24T11:01:36.173Z,99155.28
2023-07-24T11:04:04.967Z,99148.56
2023-07-24T11:06:33.384Z,99136.91
2023-07-24T11:09:02.139Z,99143.31
2023-07-24T11:11:33.000Z,99133.03
2023-07-24T11:14:03.560Z,99134.53
2023-07-24T11:16:33.074Z,99133.72
2023-07-24T11:19:01.605Z,99125.88
2023-07-24T11:21:31.227Z,99131.19
2023-07-24T11:23:59.987Z,99123.78
2023-07-24T11:26:29.138Z,99126.69
2023-07-24T11:28:58.726Z,99122.78
2023-07-24T11:31:27.360Z,99115.91
2023-07-24T11:33:56.365Z,99122.72
2023-07-24T11:36:24.709Z,99122.53
2023-07-24T11:38:52.826Z,99116.81
2023-07-24T11:41:21.288Z,99114.19
2023-07-24T11:43:50.858Z,99111.75
2023-07-24T11:46:27.126Z,99098.81
2023-07-24T11:48:58.300Z,99106.41
2023-07-24T11:51:30.789Z,99107.47
2023-07-24T11:54:09.853Z,99115.19
2023-07-24T11:56:38.012Z,99110.34
2023-07-24T11:59:13.907Z,99106.97
2023-07-24T12:01:43.485Z,99090.31
2023-07-24T12:04:12.748Z,99099.25
2023-07-24T12:06:41.150Z,99098.06
2023-07-24T12:09:09.543Z,99090.66
2023-07-24T12:11:45.144Z,99086.41
2023-07-24T12:14:15.177Z,99087.44
2023-07-24T12:16:44.969Z,99082.00
2023-07-24T12:19:13.077Z,99077.81
2023-07-24T12:21:41.505Z,99074.41
2023-07-24T12:24:09.865Z,99065.00
2023-07-24T12:26:37.953Z,99059.00
2023-07-24T12:29:06.035Z,99054.72
2023-07-24T12:31:34.519Z,99057.75
2023-07-24T12:34:04.316Z,99056.75
2023-07-24T12:36:32.366Z,99056.16
2023-07-24T12:39:00.682Z,99048.41
2023-07-24T12:41:29.077Z,99054.00
2023-07-24T12:43:57.621Z,99058.06
2023-07-24T12:46:26.144Z,99063.69
2023-07-24T12:48:54.219Z,99051.72
2023-07-24T12:51:23.670Z,99051.06
2023-07-24T12:53:58.130Z,99054.44
2023-07-24T12:56:40.197Z,99053.66
2023-07-24T12:59:08.703Z,99050.66
2023-07-24T13:01:36.711Z,99052.88
2023-07-24T13:04:04.988Z,99044.62
2023-07-24T13:06:34.688Z,99040.72
2023-07-24T13:09:02.812Z,99032.75
2023-07-24T13:11:31.282Z,99034.97
2023-07-24T13:13:59.830Z,99033.34
2023-07-24T13:16:29.462Z,99032.22
2023-07-24T13:18:57.811Z,99020.84
2023-07-24T13:21:26.227Z,99013.81
2023-07-24T13:23:56.980Z,99027.44
2023-07-24T13:26:25.280Z,99021.41
2023-07-24T13:28:54.260Z,99002.41
2023-07-24T13:31:23.961Z,99000.91
2023-07-24T13:33:52.456Z,98999.56
2023-07-24T13:36:20.664Z,98997.53
2023-07-24T13:38:49.054Z,98987.06
2023-07-24T13:41:18.777Z,98985.69
2023-07-24T13:43:46.809Z,99000.09
2023-07-24T13:46:14.855Z,99021.03
2023-07-24T13:48:43.183Z,99029.31
2023-07-24T13:51:11.995Z,99012.84
2023-07-24T13:53:40.040Z,98990.25
2023-07-24T13:56:08.574Z,98973.56
2023-07-24T13:58:37.914Z,98978.81
2023-07-24T14:01:08.276Z,98978.38
2023-07-24T14:03:36.742Z,98970.97
2023-07-24T14:06:04.990Z,98972.53
2023-07-24T14:08:33.024Z,98974.41
2023-07-24T14:11:01.317Z,98970.16
2023-07-24T14:13:29.416Z,98968.31
2023-07-24T14:15:58.767Z,98961.28
2023-07-24T14:18:27.130Z,98952.97
2023-07-24T14:20:56.720Z,98955.47
2023-07-24T14:23:24.893Z,98949.59
2023-07-24T14:25:53.141Z,98937.22
2023-07-24T14:28:21.215Z,98931.97
2023-07-24T14:30:49.518Z,98919.84
2023-07-24T14:33:19.145Z,98916.66
2023-07-24T14:35:47.190Z,98902.00
2023-07-24T14:38:15.186Z,98892.53
2023-07-24T14:40:43.474Z,98889.72
2023-07-24T14:43:11.495Z,98876.56
2023-07-24T14:45:39.559Z,98871.34
2023-07-24T14:48:10.187Z,98871.94
2023-07-24T14:50:39.881Z,98867.34
2023-07-24T14:53:08.130Z,98859.53
2023-07-24T14:55:36.134Z,98858.72
2023-07-24T14:58:04.169Z,98843.09
2023-07-24T15:00:34.111Z,98847.91
2023-07-24T15:03:02.257Z,98835.13
2023-07-24T15:05:30.386Z,98833.41
2023-07-24T15:07:59.983Z,98828.97
2023-07-24T15:10:28.277Z,98818.06
2023-07-24T15:12:57.086Z,98818.59
2023-07-24T15:15:25.551Z,98816.19
2023-07-24T15:17:53.704Z,98814.50
2023-07-24T15:20:21.830Z,98807.97
2023-07-24T15:22:50.182Z,98798.81
2023-07-24T15:25:19.740Z,98804.59
2023-07-24T15:27:47.900Z,98816.50
2023-07-24T15:30:16.651Z,98818.28
2023-07-24T15:32:44.789Z,98813.84
2023-07-24T15:35:12.958Z,98826.94
2023-07-24T15:37:41.333Z,98827.06
2023-07-24T15:40:10.959Z,98821.38
2023-07-24T15:42:41.097Z,98820.44
2023-07-24T15:45:10.594Z,98820.03
2023-07-24T15:47:38.690Z,98823.56
2023-07-24T15:50:07.562Z,98816.31
2023-07-24T15:52:35.879Z,98815.12
2023-07-24T15:55:04.000Z,98807.75
2023-07-24T15:57:32.113Z,98810.94
2023-07-24T16:00:01.806Z,98810.38
2023-07-24T16:02:30.024Z,98805.22
2023-07-24T16:04:58.410Z,98818.06
2023-07-24T16:07:26.688Z,98817.47
2023-07-24T16:09:54.708Z,98816.53
2023-07-24T16:12:23.078Z,98805.37
2023-07-24T16:14:51.399Z,98795.13
2023-07-24T16:17:22.349Z,98794.56
2023-07-24T16:19:50.690Z,98795.44
2023-07-24T16:22:18.808Z,98794.25
2023-07-24T16:24:46.874Z,98793.12
2023-07-24T16:27:15.467Z,98798.59
2023-07-24T16:29:43.444Z,98799.44
2023-07-24T16:32:11.485Z,98787.53
2023-07-24T16:34:41.097Z,98798.69
2023-07-24T16:37:09.108Z,98792.09
2023-07-24T16:39:37.183Z,98793.59
2023-07-24T16:42:05.781Z,98797.22
2023-07-24T16:44:37.353Z,98803.38
2023-07-24T16:49:37.646Z,98823.81
2023-07-24T16:52:08.018Z,98824.19
2023-07-24T16:54:36.949Z,98833.25
2023-07-24T16:57:05.679Z,98834.44
2023-07-24T16:59:33.675Z,98867.69
2023-07-24T17:02:01.972Z,98909.50
2023-07-24T17:04:30.301Z,98975.09
2023-07-24T17:06:58.426Z,98990.09
2023-07-24T17:09:27.806Z,98997.09
2023-07-24T17:11:56.117Z,98991.16
2023-07-24T17:14:24.550Z,99009.47
2023-07-24T17:16:52.673Z,99001.53
2023-07-24T17:19:22.062Z,99029.91
2023-07-24T17:21:50.575Z,99052.62
2023-07-24T17:24:18.875Z,99067.31
2023-07-24T17:26:48.585Z,99061.69
2023-07-24T17:29:16.736Z,99054.50
2023-07-24T17:31:45.031Z,99050.34
2023-07-24T17:34:13.338Z,99062.44
2023-07-24T17:36:41.376Z,99063.28
2023-07-24T17:39:09.803Z,99038.31
2023-07-24T17:41:38.108Z,99058.69
2023-07-24T17:44:07.882Z,99038.50
2023-07-24T17:46:36.038Z,99033.53
2023-07-24T17:49:04.356Z,99036.22
2023-07-24T17:51:32.905Z,99059.53
2023-07-24T17:54:01.278Z,99076.59
2023-07-24T17:56:29.831Z,99092.00
2023-07-24T17:58:58.037Z,99094.06
2023-07-24T18:01:27.572Z,99072.66
2023-07-24T18:03:55.999Z,99062.44
2023-07-24T18:06:24.030Z,99058.31
2023-07-24T18:08:52.090Z,99062.03
2023-07-24T18:11:20.541Z,99050.56
2023-07-24T18:13:48.578Z,99036.62
2023-07-24T18:16:17.217Z,99027.84
2023-07-24T18:18:47.070Z,99034.47
2023-07-24T18:21:15.541Z,99038.59
2023-07-24T18:23:43.622Z,99035.59
2023-07-24T18:26:12.003Z,99037.81
2023-07-24T18:28:40.101Z,99039.22
2023-07-24T18:31:09.656Z,99038.84
2023-07-24T18:33:38.081Z,99035.50
2023-07-24T18:36:07.716Z,99034.69
2023-07-24T18:38:36.821Z,99044.72
2023-07-24T18:41:05.800Z,99050.97
2023-07-24T18:43:33.861Z,99043.03
2023-07-24T18:46:02.522Z,99051.78
2023-07-24T18:48:31.019Z,99061.78
2023-07-24T18:50:59.634Z,99064.09
2023-07-24T18:53:30.714Z,99066.19
2023-07-24T18:55:59.729Z,99057.22
2023-07-24T18:58:27.764Z,99070.59
2023-07-24T19:00:55.760Z,99071.06
2023-07-24T19:03:24.490Z,99065.25
2023-07-24T19:05:53.231Z,99060.28
2023-07-24T19:08:21.341Z,99079.69
2023-07-24T19:10:51.049Z,99062.81
2023-07-24T19:13:19.107Z,99043.25
2023-07-24T19:15:47.106Z,99036.78
2023-07-24T19:18:15.504Z,99039.94
2023-07-24T19:20:43.528Z,99057.84
2023-07-24T19:23:11.555Z,99072.00
2023-07-24T19:25:39.926Z,99067.03
2023-07-24T19:28:09.322Z,99044.12
2023-07-24T19:30:37.337Z,99047.69
2023-07-24T19:33:05.641Z,99059.34
2023-07-24T19:35:33.716Z,99056.84
2023-07-24T19:38:01.741Z,99062.03
2023-07-24T19:40:30.017Z,99064.53
2023-07-24T19:42:58.098Z,99063.91
2023-07-24T19:45:28.267Z,99075.78
2023-07-24T19:47:56.589Z,99078.25
2023-07-24T19:50:24.923Z,99076.59
2023-07-24T19:52:52.992Z,99068.06
2023-07-24T19:55:21.932Z,99070.75
2023-07-24T19:57:50.630Z,99059.31
2023-07-24T20:00:19.131Z,99064.47
2023-07-24T20:02:48.963Z,99071.97
2023-07-24T20:05:17.352Z,99098.78
2023-07-24T20:07:45.397Z,99105.62
2023-07-24T20:10:13.921Z,99106.84
2023-07-24T20:12:42.265Z,99125.97
2023-07-24T20:15:10.846Z,99120.34
2023-07-24T20:17:39.228Z,99119.50
2023-07-24T20:20:09.895Z,99113.91
2023-07-24T20:22:38.219Z,99112.47
2023-07-24T20:25:06.927Z,99111.44
2023-07-24T20:27:34.982Z,99123.09
2023-07-24T20:30:03.511Z,99136.59
2023-07-24T20:32:32.414Z,99128.50
2023-07-24T20:35:00.528Z,99121.41
2023-07-24T20:37:30.159Z,99122.47
2023-07-24T20:39:58.171Z,99121.38
2023-07-24T20:42:26.163Z,99125.72
2023-07-24T20:44:55.018Z,99127.59
2023-07-24T20:47:23.488Z,99131.31
2023-07-24T20:49:51.721Z,99127.16
2023-07-24T20:52:21.451Z,99134.03
2023-07-24T20:54:50.832Z,99136.12
2023-07-24T20:57:18.954Z,99149.63
2023-07-24T20:59:48.077Z,99146.75
2023-07-24T21:02:16.101Z,99150.47
2023-07-24T21:04:44.610Z,99153.78
2023-07-24T21:07:13.006Z,99157.06
2023-07-24T21:09:41.045Z,99168.28
2023-07-24T21:12:10.606Z,99174.94
2023-07-24T21:14:38.953Z,99184.91
2023-07-24T21:17:07.210Z,99186.97
2023-07-24T21:19:35.292Z,99194.88
2023-07-24T21:22:03.602Z,99207.34
2023-07-24T21:24:31.816Z,99201.31
2023-07-24T21:27:00.047Z,99197.28
2023-07-24T21:29:29.679Z,99196.78
2023-07-24T21:31:58.587Z,99207.81
2023-07-24T21:34:26.565Z,99198.00
2023-07-24T21:36:54.887Z,99193.84
2023-07-24T21:39:23.215Z,99196.75
2023-07-24T21:41:51.252Z,99194.88
2023-07-24T21:44:19.550Z,99197.56
2023-07-24T21:46:48.992Z,99198.81
2023-07-24T21:49:17.024Z,99189.03
2023-07-24T21:51:45.403Z,99199.84
2023-07-24T21:54:13.482Z,99202.34
2023-07-24T21:56:41.606Z,99203.38
2023-07-24T21:59:09.937Z,99205.88
2023-07-24T22:01:38.147Z,99205.69
2023-07-24T22:04:07.884Z,99199.88
2023-07-24T22:06:36.020Z,99200.53
2023-07-24T22:09:04.240Z,99205.53
2023-07-24T22:11:36.097Z,99212.59
2023-07-24T22:14:04.314Z,99215.50
2023-07-24T22:16:32.631Z,99210.72
2023-07-24T22:19:00.676Z,99212.19
2023-07-24T22:21:30.295Z,99210.31
2023-07-24T22:23:58.810Z,99215.53
2023-07-24T22:26:26.889Z,99215.97
2023-07-24T22:28:54.963Z,99209.75
2023-07-24T22:31:23.371Z,99210.22
2023-07-24T22:33:51.426Z,99211.66
2023-07-24T22:36:19.428Z,99203.00
2023-07-24T22:38:49.047Z,99202.16
2023-07-24T22:41:17.114Z,99200.28
2023-07-24T22:43:45.988Z,99204.66
2023-07-24T22:46:14.400Z,99201.13
2023-07-24T22:48:42.595Z,99207.78
2023-07-24T22:51:11.212Z,99215.66
2023-07-24T22:53:39.519Z,99225.44
2023-07-24T22:56:10.127Z,99227.09
2023-07-24T22:59:07.737Z,99219.00
2023-07-24T23:01:36.023Z,99224.44
2023-07-24T23:04:04.286Z,99222.31
2023-07-24T23:06:32.392Z,99230.03
2023-07-24T23:09:00.736Z,99221.75
2023-07-24T23:11:30.494Z,99233.19
2023-07-24T23:13:58.821Z,99238.53
2023-07-24T23:16:27.165Z,99241.25
2023-07-24T23:18:55.277Z,99240.19
2023-07-24T23:21:23.288Z,99236.91
2023-07-24T23:23:51.690Z,99239.41
2023-07-24T23:26:19.958Z,99236.09
2023-07-24T23:28:49.384Z,99245.66
2023-07-24T23:31:17.810Z,99250.22
2023-07-24T23:33:45.960Z,99256.91
2023-07-24T23:36:14.100Z,99251.94
2023-07-24T23:38:42.462Z,99254.44
2023-07-24T23:41:10.577Z,99250.06
2023-07-24T23:43:38.716Z,99249.03
2023-07-24T23:46:13.083Z,99249.03
2023-07-24T23:48:41.834Z,99247.56
2023-07-24T23:51:17.705Z,99250.66
2023-07-24T23:53:46.933Z,99249.44
2023-07-24T23:56:15.609Z,99252.53
2023-07-24T23:58:43.588Z,99258.34
